sensor_id;sensor_type;location;lat;lon;timestamp;P1;durP1;ratioP1;P2;durP2;ratioP2
74908;SDS011;63468;52.058;4.824;2023-08-12T00:01:49;15.27;;;11.15;;
74908;SDS011;63468;52.058;4.824;2023-08-12T00:04:15;15.23;;;12.05;;
74908;SDS011;63468;52.058;4.824;2023-08-12T00:06:41;13.70;;;11.25;;
74908;SDS011;63468;52.058;4.824;2023-08-12T00:09:07;16.00;;;11.13;;
74908;SDS011;63468;52.058;4.824;2023-08-12T00:11:34;15.00;;;12.38;;
74908;SDS011;63468;52.058;4.824;2023-08-12T00:14:00;16.05;;;11.77;;
74908;SDS011;63468;52.058;4.824;2023-08-12T00:16:25;16.42;;;12.05;;
74908;SDS011;63468;52.058;4.824;2023-08-12T00:18:50;16.92;;;12.25;;
74908;SDS011;63468;52.058;4.824;2023-08-12T00:21:16;14.02;;;11.02;;
74908;SDS011;63468;52.058;4.824;2023-08-12T00:23:41;15.93;;;12.80;;
74908;SDS011;63468;52.058;4.824;2023-08-12T00:26:08;15.13;;;12.52;;
74908;SDS011;63468;52.058;4.824;2023-08-12T00:28:33;15.35;;;12.40;;
74908;SDS011;63468;52.058;4.824;2023-08-12T00:30:59;14.95;;;12.55;;
74908;SDS011;63468;52.058;4.824;2023-08-12T00:33:24;15.00;;;12.10;;
74908;SDS011;63468;52.058;4.824;2023-08-12T00:35:49;19.05;;;13.43;;
74908;SDS011;63468;52.058;4.824;2023-08-12T00:38:14;16.17;;;13.30;;
74908;SDS011;63468;52.058;4.824;2023-08-12T00:40:40;15.82;;;12.70;;
74908;SDS011;63468;52.058;4.824;2023-08-12T00:43:05;14.98;;;11.95;;
74908;SDS011;63468;52.058;4.824;2023-08-12T00:45:31;16.63;;;13.25;;
74908;SDS011;63468;52.058;4.824;2023-08-12T00:47:56;16.65;;;13.05;;
74908;SDS011;63468;52.058;4.824;2023-08-12T00:50:22;16.70;;;13.65;;
74908;SDS011;63468;52.058;4.824;2023-08-12T00:52:48;18.73;;;12.57;;
74908;SDS011;63468;52.058;4.824;2023-08-12T00:55:14;16.13;;;13.02;;
74908;SDS011;63468;52.058;4.824;2023-08-12T00:57:39;14.85;;;12.93;;
74908;SDS011;63468;52.058;4.824;2023-08-12T01:00:05;20.00;;;14.43;;
74908;SDS011;63468;52.058;4.824;2023-08-12T01:02:31;16.10;;;13.77;;
74908;SDS011;63468;52.058;4.824;2023-08-12T01:04:57;21.27;;;14.07;;
74908;SDS011;63468;52.058;4.824;2023-08-12T01:07:23;17.13;;;14.32;;
74908;SDS011;63468;52.058;4.824;2023-08-12T01:09:48;16.58;;;13.73;;
74908;SDS011;63468;52.058;4.824;2023-08-12T01:12:18;19.88;;;14.73;;
74908;SDS011;63468;52.058;4.824;2023-08-12T01:15:01;16.40;;;13.90;;
74908;SDS011;63468;52.058;4.824;2023-08-12T01:17:32;19.70;;;15.20;;
74908;SDS011;63468;52.058;4.824;2023-08-12T01:19:59;16.92;;;14.57;;
74908;SDS011;63468;52.058;4.824;2023-08-12T01:22:25;18.15;;;14.82;;
74908;SDS011;63468;52.058;4.824;2023-08-12T01:24:51;17.17;;;14.30;;
74908;SDS011;63468;52.058;4.824;2023-08-12T01:27:17;19.27;;;15.00;;
74908;SDS011;63468;52.058;4.824;2023-08-12T01:29:43;15.93;;;13.70;;
74908;SDS011;63468;52.058;4.824;2023-08-12T01:37:42;20.25;;;15.75;;
74908;SDS011;63468;52.058;4.824;2023-08-12T01:40:08;18.27;;;15.30;;
74908;SDS011;63468;52.058;4.824;2023-08-12T01:42:34;19.13;;;15.48;;
74908;SDS011;63468;52.058;4.824;2023-08-12T01:45:00;21.38;;;15.40;;
74908;SDS011;63468;52.058;4.824;2023-08-12T01:47:29;20.20;;;16.10;;
74908;SDS011;63468;52.058;4.824;2023-08-12T01:49:55;19.02;;;15.50;;
74908;SDS011;63468;52.058;4.824;2023-08-12T01:52:20;17.92;;;16.02;;
74908;SDS011;63468;52.058;4.824;2023-08-12T01:54:46;22.50;;;16.10;;
74908;SDS011;63468;52.058;4.824;2023-08-12T01:57:11;20.98;;;15.98;;
74908;SDS011;63468;52.058;4.824;2023-08-12T01:59:37;19.73;;;16.38;;
74908;SDS011;63468;52.058;4.824;2023-08-12T02:02:03;17.80;;;15.90;;
74908;SDS011;63468;52.058;4.824;2023-08-12T02:04:29;20.13;;;16.52;;
74908;SDS011;63468;52.058;4.824;2023-08-12T02:06:54;19.38;;;15.45;;
74908;SDS011;63468;52.058;4.824;2023-08-12T02:09:20;17.67;;;15.23;;
74908;SDS011;63468;52.058;4.824;2023-08-12T02:11:46;18.20;;;16.27;;
74908;SDS011;63468;52.058;4.824;2023-08-12T02:14:11;20.60;;;16.40;;
74908;SDS011;63468;52.058;4.824;2023-08-12T02:16:36;19.48;;;15.77;;
74908;SDS011;63468;52.058;4.824;2023-08-12T02:19:02;18.33;;;15.90;;
74908;SDS011;63468;52.058;4.824;2023-08-12T02:21:27;21.20;;;16.52;;
74908;SDS011;63468;52.058;4.824;2023-08-12T02:23:52;18.23;;;16.33;;
74908;SDS011;63468;52.058;4.824;2023-08-12T02:26:18;19.05;;;16.38;;
74908;SDS011;63468;52.058;4.824;2023-08-12T02:28:43;17.70;;;15.98;;
74908;SDS011;63468;52.058;4.824;2023-08-12T02:31:08;22.50;;;16.17;;
74908;SDS011;63468;52.058;4.824;2023-08-12T02:33:34;21.27;;;15.77;;
74908;SDS011;63468;52.058;4.824;2023-08-12T02:35:59;19.02;;;16.75;;
74908;SDS011;63468;52.058;4.824;2023-08-12T02:38:24;21.48;;;17.58;;
74908;SDS011;63468;52.058;4.824;2023-08-12T02:40:50;22.40;;;17.35;;
74908;SDS011;63468;52.058;4.824;2023-08-12T02:43:16;20.67;;;16.17;;
74908;SDS011;63468;52.058;4.824;2023-08-12T02:45:41;22.75;;;17.02;;
74908;SDS011;63468;52.058;4.824;2023-08-12T02:48:09;23.67;;;17.65;;
74908;SDS011;63468;52.058;4.824;2023-08-12T02:50:35;23.58;;;16.63;;
74908;SDS011;63468;52.058;4.824;2023-08-12T02:53:00;21.17;;;17.40;;
74908;SDS011;63468;52.058;4.824;2023-08-12T02:55:25;22.10;;;17.45;;
74908;SDS011;63468;52.058;4.824;2023-08-12T02:57:50;20.13;;;17.98;;
74908;SDS011;63468;52.058;4.824;2023-08-12T03:00:16;26.10;;;18.90;;
74908;SDS011;63468;52.058;4.824;2023-08-12T03:02:42;21.90;;;18.90;;
74908;SDS011;63468;52.058;4.824;2023-08-12T03:05:08;26.05;;;18.75;;
74908;SDS011;63468;52.058;4.824;2023-08-12T03:07:33;25.70;;;21.25;;
74908;SDS011;63468;52.058;4.824;2023-08-12T03:09:58;24.75;;;22.38;;
74908;SDS011;63468;52.058;4.824;2023-08-12T03:12:24;26.00;;;23.00;;
74908;SDS011;63468;52.058;4.824;2023-08-12T03:14:49;26.65;;;23.58;;
74908;SDS011;63468;52.058;4.824;2023-08-12T03:17:14;27.38;;;24.65;;
74908;SDS011;63468;52.058;4.824;2023-08-12T03:19:40;28.13;;;25.02;;
74908;SDS011;63468;52.058;4.824;2023-08-12T03:22:05;26.67;;;24.35;;
74908;SDS011;63468;52.058;4.824;2023-08-12T03:24:31;28.48;;;25.77;;
74908;SDS011;63468;52.058;4.824;2023-08-12T03:26:56;26.83;;;24.35;;
74908;SDS011;63468;52.058;4.824;2023-08-12T03:29:21;30.15;;;26.58;;
74908;SDS011;63468;52.058;4.824;2023-08-12T03:31:46;28.23;;;25.15;;
74908;SDS011;63468;52.058;4.824;2023-08-12T03:34:12;28.70;;;26.00;;
74908;SDS011;63468;52.058;4.824;2023-08-12T03:36:37;28.58;;;25.88;;
74908;SDS011;63468;52.058;4.824;2023-08-12T03:39:02;27.40;;;24.77;;
74908;SDS011;63468;52.058;4.824;2023-08-12T03:41:28;29.95;;;26.95;;
74908;SDS011;63468;52.058;4.824;2023-08-12T03:43:54;29.27;;;26.17;;
74908;SDS011;63468;52.058;4.824;2023-08-12T03:46:19;28.77;;;25.92;;
74908;SDS011;63468;52.058;4.824;2023-08-12T03:48:44;29.60;;;26.60;;
74908;SDS011;63468;52.058;4.824;2023-08-12T03:51:10;30.13;;;27.20;;
74908;SDS011;63468;52.058;4.824;2023-08-12T03:53:35;29.08;;;26.15;;
74908;SDS011;63468;52.058;4.824;2023-08-12T03:56:00;28.60;;;25.33;;
74908;SDS011;63468;52.058;4.824;2023-08-12T03:58:26;28.65;;;25.65;;
74908;SDS011;63468;52.058;4.824;2023-08-12T04:00:51;29.95;;;26.88;;
74908;SDS011;63468;52.058;4.824;2023-08-12T04:03:16;29.23;;;26.17;;
74908;SDS011;63468;52.058;4.824;2023-08-12T04:05:51;30.00;;;25.50;;
74908;SDS011;63468;52.058;4.824;2023-08-12T04:08:26;28.02;;;25.15;;
74908;SDS011;63468;52.058;4.824;2023-08-12T04:10:51;28.77;;;25.67;;
74908;SDS011;63468;52.058;4.824;2023-08-12T04:13:17;29.60;;;26.77;;
74908;SDS011;63468;52.058;4.824;2023-08-12T04:15:42;30.20;;;27.13;;
74908;SDS011;63468;52.058;4.824;2023-08-12T04:18:08;30.75;;;26.58;;
74908;SDS011;63468;52.058;4.824;2023-08-12T04:20:33;30.20;;;27.27;;
74908;SDS011;63468;52.058;4.824;2023-08-12T04:22:58;29.80;;;26.63;;
74908;SDS011;63468;52.058;4.824;2023-08-12T04:25:24;28.98;;;26.05;;
74908;SDS011;63468;52.058;4.824;2023-08-12T04:27:50;29.73;;;26.45;;
74908;SDS011;63468;52.058;4.824;2023-08-12T04:30:16;28.35;;;25.60;;
74908;SDS011;63468;52.058;4.824;2023-08-12T04:32:41;29.48;;;25.73;;
74908;SDS011;63468;52.058;4.824;2023-08-12T04:35:07;28.25;;;25.35;;
74908;SDS011;63468;52.058;4.824;2023-08-12T04:37:33;28.52;;;25.50;;
74908;SDS011;63468;52.058;4.824;2023-08-12T04:39:58;31.05;;;26.80;;
74908;SDS011;63468;52.058;4.824;2023-08-12T04:42:23;35.70;;;25.30;;
74908;SDS011;63468;52.058;4.824;2023-08-12T04:44:49;29.80;;;26.27;;
74908;SDS011;63468;52.058;4.824;2023-08-12T04:47:14;30.45;;;24.88;;
74908;SDS011;63468;52.058;4.824;2023-08-12T04:49:40;27.73;;;24.85;;
74908;SDS011;63468;52.058;4.824;2023-08-12T04:52:05;60.25;;;46.55;;
74908;SDS011;63468;52.058;4.824;2023-08-12T04:54:31;38.70;;;29.48;;
74908;SDS011;63468;52.058;4.824;2023-08-12T04:56:57;30.58;;;27.20;;
74908;SDS011;63468;52.058;4.824;2023-08-12T04:59:22;29.00;;;26.15;;
74908;SDS011;63468;52.058;4.824;2023-08-12T05:01:48;28.98;;;25.77;;
74908;SDS011;63468;52.058;4.824;2023-08-12T05:04:14;27.92;;;25.08;;
74908;SDS011;63468;52.058;4.824;2023-08-12T05:06:40;27.80;;;24.77;;
74908;SDS011;63468;52.058;4.824;2023-08-12T05:09:05;27.88;;;24.83;;
74908;SDS011;63468;52.058;4.824;2023-08-12T05:11:30;27.10;;;24.35;;
74908;SDS011;63468;52.058;4.824;2023-08-12T05:13:56;29.52;;;26.63;;
74908;SDS011;63468;52.058;4.824;2023-08-12T05:16:21;27.65;;;24.73;;
74908;SDS011;63468;52.058;4.824;2023-08-12T05:18:46;28.52;;;25.58;;
74908;SDS011;63468;52.058;4.824;2023-08-12T05:21:12;29.55;;;25.88;;
74908;SDS011;63468;52.058;4.824;2023-08-12T05:23:37;32.58;;;24.30;;
74908;SDS011;63468;52.058;4.824;2023-08-12T05:26:02;28.02;;;24.95;;
74908;SDS011;63468;52.058;4.824;2023-08-12T05:28:28;26.95;;;24.13;;
74908;SDS011;63468;52.058;4.824;2023-08-12T05:30:53;27.70;;;24.77;;
74908;SDS011;63468;52.058;4.824;2023-08-12T05:33:20;30.92;;;24.38;;
74908;SDS011;63468;52.058;4.824;2023-08-12T05:35:48;26.75;;;24.05;;
74908;SDS011;63468;52.058;4.824;2023-08-12T05:38:14;34.92;;;31.92;;
74908;SDS011;63468;52.058;4.824;2023-08-12T05:40:39;37.53;;;34.00;;
74908;SDS011;63468;52.058;4.824;2023-08-12T05:43:04;43.83;;;39.97;;
74908;SDS011;63468;52.058;4.824;2023-08-12T05:45:30;45.63;;;40.95;;
74908;SDS011;63468;52.058;4.824;2023-08-12T05:47:55;43.35;;;39.88;;
74908;SDS011;63468;52.058;4.824;2023-08-12T05:50:21;45.42;;;41.38;;
74908;SDS011;63468;52.058;4.824;2023-08-12T05:52:46;47.33;;;43.15;;
74908;SDS011;63468;52.058;4.824;2023-08-12T05:55:11;43.90;;;39.95;;
74908;SDS011;63468;52.058;4.824;2023-08-12T05:57:37;43.78;;;39.50;;
74908;SDS011;63468;52.058;4.824;2023-08-12T06:00:02;38.78;;;34.90;;
74908;SDS011;63468;52.058;4.824;2023-08-12T06:02:28;43.92;;;34.65;;
74908;SDS011;63468;52.058;4.824;2023-08-12T06:04:53;34.17;;;30.80;;
74908;SDS011;63468;52.058;4.824;2023-08-12T06:07:18;34.03;;;30.95;;
74908;SDS011;63468;52.058;4.824;2023-08-12T06:09:44;32.13;;;29.20;;
74908;SDS011;63468;52.058;4.824;2023-08-12T06:12:09;31.95;;;28.88;;
74908;SDS011;63468;52.058;4.824;2023-08-12T06:14:36;31.85;;;28.33;;
74908;SDS011;63468;52.058;4.824;2023-08-12T06:17:02;31.02;;;28.25;;
74908;SDS011;63468;52.058;4.824;2023-08-12T06:19:27;29.17;;;26.67;;
74908;SDS011;63468;52.058;4.824;2023-08-12T06:21:53;28.80;;;26.33;;
74908;SDS011;63468;52.058;4.824;2023-08-12T06:24:18;28.08;;;25.48;;
74908;SDS011;63468;52.058;4.824;2023-08-12T06:26:43;27.85;;;25.30;;
74908;SDS011;63468;52.058;4.824;2023-08-12T06:29:08;27.95;;;25.65;;
74908;SDS011;63468;52.058;4.824;2023-08-12T06:31:34;26.75;;;24.65;;
74908;SDS011;63468;52.058;4.824;2023-08-12T06:33:59;26.77;;;24.42;;
74908;SDS011;63468;52.058;4.824;2023-08-12T06:36:25;26.45;;;24.45;;
74908;SDS011;63468;52.058;4.824;2023-08-12T06:38:51;26.13;;;24.23;;
74908;SDS011;63468;52.058;4.824;2023-08-12T06:41:16;26.77;;;24.77;;
74908;SDS011;63468;52.058;4.824;2023-08-12T06:43:41;26.35;;;24.45;;
74908;SDS011;63468;52.058;4.824;2023-08-12T06:46:06;25.85;;;24.00;;
74908;SDS011;63468;52.058;4.824;2023-08-12T06:48:32;26.63;;;24.33;;
74908;SDS011;63468;52.058;4.824;2023-08-12T06:50:57;25.88;;;23.98;;
74908;SDS011;63468;52.058;4.824;2023-08-12T06:53:24;26.60;;;24.58;;
74908;SDS011;63468;52.058;4.824;2023-08-12T06:55:51;26.00;;;23.73;;
74908;SDS011;63468;52.058;4.824;2023-08-12T06:58:16;26.33;;;24.35;;
74908;SDS011;63468;52.058;4.824;2023-08-12T07:00:41;26.00;;;24.00;;
74908;SDS011;63468;52.058;4.824;2023-08-12T07:03:07;25.63;;;23.83;;
74908;SDS011;63468;52.058;4.824;2023-08-12T07:05:33;25.52;;;23.63;;
74908;SDS011;63468;52.058;4.824;2023-08-12T07:07:58;25.48;;;23.60;;
74908;SDS011;63468;52.058;4.824;2023-08-12T07:10:23;26.23;;;24.35;;
74908;SDS011;63468;52.058;4.824;2023-08-12T07:12:48;25.52;;;23.75;;
74908;SDS011;63468;52.058;4.824;2023-08-12T07:15:14;26.30;;;24.30;;
74908;SDS011;63468;52.058;4.824;2023-08-12T07:17:39;25.15;;;23.20;;
74908;SDS011;63468;52.058;4.824;2023-08-12T07:20:05;26.55;;;24.52;;
74908;SDS011;63468;52.058;4.824;2023-08-12T07:22:31;26.25;;;24.35;;
74908;SDS011;63468;52.058;4.824;2023-08-12T07:24:57;27.30;;;24.73;;
74908;SDS011;63468;52.058;4.824;2023-08-12T07:27:25;26.00;;;23.80;;
74908;SDS011;63468;52.058;4.824;2023-08-12T07:29:50;25.65;;;23.75;;
74908;SDS011;63468;52.058;4.824;2023-08-12T07:32:16;25.45;;;23.52;;
74908;SDS011;63468;52.058;4.824;2023-08-12T07:34:41;24.70;;;22.60;;
74908;SDS011;63468;52.058;4.824;2023-08-12T07:37:06;25.48;;;23.58;;
74908;SDS011;63468;52.058;4.824;2023-08-12T07:39:32;24.65;;;22.95;;
74908;SDS011;63468;52.058;4.824;2023-08-12T07:41:57;25.85;;;23.92;;
74908;SDS011;63468;52.058;4.824;2023-08-12T07:44:22;24.42;;;22.67;;
74908;SDS011;63468;52.058;4.824;2023-08-12T07:46:48;23.73;;;22.02;;
74908;SDS011;63468;52.058;4.824;2023-08-12T07:49:14;24.00;;;22.25;;
74908;SDS011;63468;52.058;4.824;2023-08-12T07:51:40;24.30;;;22.30;;
74908;SDS011;63468;52.058;4.824;2023-08-12T07:54:06;24.40;;;22.77;;
74908;SDS011;63468;52.058;4.824;2023-08-12T07:56:31;23.35;;;21.63;;
74908;SDS011;63468;52.058;4.824;2023-08-12T07:58:56;23.52;;;21.80;;
74908;SDS011;63468;52.058;4.824;2023-08-12T08:01:22;24.17;;;22.48;;
74908;SDS011;63468;52.058;4.824;2023-08-12T08:03:47;24.58;;;22.65;;
74908;SDS011;63468;52.058;4.824;2023-08-12T08:06:12;25.60;;;23.55;;
74908;SDS011;63468;52.058;4.824;2023-08-12T08:08:38;26.20;;;23.55;;
74908;SDS011;63468;52.058;4.824;2023-08-12T08:11:03;24.85;;;22.90;;
74908;SDS011;63468;52.058;4.824;2023-08-12T08:13:28;24.73;;;22.70;;
74908;SDS011;63468;52.058;4.824;2023-08-12T08:15:54;23.63;;;21.85;;
74908;SDS011;63468;52.058;4.824;2023-08-12T08:18:19;24.45;;;22.33;;
74908;SDS011;63468;52.058;4.824;2023-08-12T08:20:44;24.60;;;22.63;;
74908;SDS011;63468;52.058;4.824;2023-08-12T08:23:10;24.48;;;22.60;;
74908;SDS011;63468;52.058;4.824;2023-08-12T08:25:35;23.48;;;21.73;;
74908;SDS011;63468;52.058;4.824;2023-08-12T08:28:00;23.67;;;21.98;;
74908;SDS011;63468;52.058;4.824;2023-08-12T08:30:26;25.80;;;23.60;;
74908;SDS011;63468;52.058;4.824;2023-08-12T08:32:51;24.02;;;21.88;;
74908;SDS011;63468;52.058;4.824;2023-08-12T08:35:17;24.85;;;22.70;;
74908;SDS011;63468;52.058;4.824;2023-08-12T08:37:42;24.50;;;22.75;;
74908;SDS011;63468;52.058;4.824;2023-08-12T08:40:07;24.50;;;22.63;;
74908;SDS011;63468;52.058;4.824;2023-08-12T08:42:33;24.33;;;22.27;;
74908;SDS011;63468;52.058;4.824;2023-08-12T08:45:00;25.65;;;23.67;;
74908;SDS011;63468;52.058;4.824;2023-08-12T08:47:26;25.38;;;23.48;;
74908;SDS011;63468;52.058;4.824;2023-08-12T08:49:53;25.70;;;23.90;;
74908;SDS011;63468;52.058;4.824;2023-08-12T08:52:20;25.15;;;23.08;;
74908;SDS011;63468;52.058;4.824;2023-08-12T08:54:45;24.80;;;22.95;;
74908;SDS011;63468;52.058;4.824;2023-08-12T08:57:11;26.20;;;24.25;;
74908;SDS011;63468;52.058;4.824;2023-08-12T08:59:37;25.88;;;24.00;;
74908;SDS011;63468;52.058;4.824;2023-08-12T09:02:02;25.30;;;23.40;;
74908;SDS011;63468;52.058;4.824;2023-08-12T09:04:28;25.38;;;23.65;;
74908;SDS011;63468;52.058;4.824;2023-08-12T09:06:54;25.25;;;23.45;;
74908;SDS011;63468;52.058;4.824;2023-08-12T09:09:20;25.95;;;23.98;;
74908;SDS011;63468;52.058;4.824;2023-08-12T09:11:45;25.88;;;24.17;;
74908;SDS011;63468;52.058;4.824;2023-08-12T09:14:12;26.52;;;24.83;;
74908;SDS011;63468;52.058;4.824;2023-08-12T09:16:38;25.55;;;23.85;;
74908;SDS011;63468;52.058;4.824;2023-08-12T09:19:03;26.23;;;24.52;;
74908;SDS011;63468;52.058;4.824;2023-08-12T09:21:29;24.90;;;23.17;;
74908;SDS011;63468;52.058;4.824;2023-08-12T09:23:55;25.40;;;23.42;;
74908;SDS011;63468;52.058;4.824;2023-08-12T09:26:20;26.98;;;24.55;;
74908;SDS011;63468;52.058;4.824;2023-08-12T09:28:46;25.17;;;23.25;;
74908;SDS011;63468;52.058;4.824;2023-08-12T09:31:22;25.85;;;24.10;;
74908;SDS011;63468;52.058;4.824;2023-08-12T09:33:53;26.40;;;24.25;;
74908;SDS011;63468;52.058;4.824;2023-08-12T09:36:22;23.10;;;21.30;;
74908;SDS011;63468;52.058;4.824;2023-08-12T09:38:47;23.52;;;21.85;;
74908;SDS011;63468;52.058;4.824;2023-08-12T09:41:13;21.10;;;19.38;;
74908;SDS011;63468;52.058;4.824;2023-08-12T09:43:42;22.17;;;20.35;;
74908;SDS011;63468;52.058;4.824;2023-08-12T09:46:10;23.92;;;22.13;;
74908;SDS011;63468;52.058;4.824;2023-08-12T09:48:37;21.02;;;19.73;;
74908;SDS011;63468;52.058;4.824;2023-08-12T09:51:02;19.95;;;18.05;;
74908;SDS011;63468;52.058;4.824;2023-08-12T09:53:28;21.50;;;19.92;;
74908;SDS011;63468;52.058;4.824;2023-08-12T09:55:53;20.17;;;18.67;;
74908;SDS011;63468;52.058;4.824;2023-08-12T09:58:20;20.13;;;18.40;;
74908;SDS011;63468;52.058;4.824;2023-08-12T10:00:47;19.52;;;17.90;;
74908;SDS011;63468;52.058;4.824;2023-08-12T10:03:14;19.20;;;17.55;;
74908;SDS011;63468;52.058;4.824;2023-08-12T10:05:42;17.70;;;16.33;;
74908;SDS011;63468;52.058;4.824;2023-08-12T10:08:08;19.63;;;17.75;;
74908;SDS011;63468;52.058;4.824;2023-08-12T10:10:35;18.35;;;16.90;;
74908;SDS011;63468;52.058;4.824;2023-08-12T10:13:00;18.05;;;16.65;;
74908;SDS011;63468;52.058;4.824;2023-08-12T10:15:26;18.52;;;16.77;;
74908;SDS011;63468;52.058;4.824;2023-08-12T10:17:52;17.42;;;16.13;;
74908;SDS011;63468;52.058;4.824;2023-08-12T10:20:21;18.00;;;16.65;;
74908;SDS011;63468;52.058;4.824;2023-08-12T10:22:50;17.48;;;16.00;;
74908;SDS011;63468;52.058;4.824;2023-08-12T10:25:17;18.65;;;16.98;;
74908;SDS011;63468;52.058;4.824;2023-08-12T10:27:43;18.65;;;17.00;;
74908;SDS011;63468;52.058;4.824;2023-08-12T10:30:09;17.70;;;16.30;;
74908;SDS011;63468;52.058;4.824;2023-08-12T10:32:35;17.63;;;16.10;;
74908;SDS011;63468;52.058;4.824;2023-08-12T10:35:00;16.63;;;15.23;;
74908;SDS011;63468;52.058;4.824;2023-08-12T10:37:25;17.77;;;16.17;;
74908;SDS011;63468;52.058;4.824;2023-08-12T10:39:52;17.90;;;16.40;;
74908;SDS011;63468;52.058;4.824;2023-08-12T10:45:22;17.95;;;16.20;;
74908;SDS011;63468;52.058;4.824;2023-08-12T10:47:48;18.20;;;16.55;;
74908;SDS011;63468;52.058;4.824;2023-08-12T10:50:20;18.00;;;16.50;;
74908;SDS011;63468;52.058;4.824;2023-08-12T10:52:47;17.58;;;16.25;;
74908;SDS011;63468;52.058;4.824;2023-08-12T10:55:17;17.77;;;16.35;;
74908;SDS011;63468;52.058;4.824;2023-08-12T10:57:44;18.05;;;16.45;;
74908;SDS011;63468;52.058;4.824;2023-08-12T11:00:10;17.58;;;15.90;;
74908;SDS011;63468;52.058;4.824;2023-08-12T11:02:36;18.17;;;16.60;;
74908;SDS011;63468;52.058;4.824;2023-08-12T11:07:39;17.60;;;16.25;;
74908;SDS011;63468;52.058;4.824;2023-08-12T11:10:12;17.35;;;15.95;;
74908;SDS011;63468;52.058;4.824;2023-08-12T11:15:18;17.73;;;16.13;;
74908;SDS011;63468;52.058;4.824;2023-08-12T11:17:47;17.50;;;16.10;;
74908;SDS011;63468;52.058;4.824;2023-08-12T11:20:13;17.77;;;16.15;;
74908;SDS011;63468;52.058;4.824;2023-08-12T11:22:39;18.15;;;16.42;;
74908;SDS011;63468;52.058;4.824;2023-08-12T11:25:06;17.50;;;15.98;;
74908;SDS011;63468;52.058;4.824;2023-08-12T11:27:41;17.63;;;16.08;;
74908;SDS011;63468;52.058;4.824;2023-08-12T11:30:07;17.98;;;16.30;;
74908;SDS011;63468;52.058;4.824;2023-08-12T11:32:35;18.38;;;16.92;;
74908;SDS011;63468;52.058;4.824;2023-08-12T11:35:01;18.02;;;16.38;;
74908;SDS011;63468;52.058;4.824;2023-08-12T11:37:27;18.13;;;16.55;;
74908;SDS011;63468;52.058;4.824;2023-08-12T11:39:52;17.65;;;16.02;;
74908;SDS011;63468;52.058;4.824;2023-08-12T11:42:18;18.20;;;16.20;;
74908;SDS011;63468;52.058;4.824;2023-08-12T11:44:43;18.60;;;17.05;;
74908;SDS011;63468;52.058;4.824;2023-08-12T11:47:09;18.75;;;16.80;;
74908;SDS011;63468;52.058;4.824;2023-08-12T11:49:34;17.95;;;16.55;;
74908;SDS011;63468;52.058;4.824;2023-08-12T11:51:59;18.05;;;16.48;;
74908;SDS011;63468;52.058;4.824;2023-08-12T11:54:25;17.27;;;15.93;;
74908;SDS011;63468;52.058;4.824;2023-08-12T11:56:51;18.13;;;16.70;;
74908;SDS011;63468;52.058;4.824;2023-08-12T11:59:16;18.85;;;16.98;;
74908;SDS011;63468;52.058;4.824;2023-08-12T12:01:46;17.98;;;16.38;;
74908;SDS011;63468;52.058;4.824;2023-08-12T12:04:13;18.17;;;16.50;;
74908;SDS011;63468;52.058;4.824;2023-08-12T12:06:39;18.23;;;16.50;;
74908;SDS011;63468;52.058;4.824;2023-08-12T12:09:05;18.17;;;16.58;;
74908;SDS011;63468;52.058;4.824;2023-08-12T12:11:34;19.45;;;16.40;;
74908;SDS011;63468;52.058;4.824;2023-08-12T12:14:03;17.60;;;16.00;;
74908;SDS011;63468;52.058;4.824;2023-08-12T12:16:42;17.08;;;15.80;;
74908;SDS011;63468;52.058;4.824;2023-08-12T12:21:47;18.13;;;16.33;;
74908;SDS011;63468;52.058;4.824;2023-08-12T12:24:14;17.98;;;16.20;;
74908;SDS011;63468;52.058;4.824;2023-08-12T12:26:39;16.77;;;15.07;;
74908;SDS011;63468;52.058;4.824;2023-08-12T12:29:06;17.38;;;15.65;;
74908;SDS011;63468;52.058;4.824;2023-08-12T12:31:32;17.27;;;15.77;;
74908;SDS011;63468;52.058;4.824;2023-08-12T12:33:59;17.55;;;15.88;;
74908;SDS011;63468;52.058;4.824;2023-08-12T12:36:25;17.73;;;16.05;;
74908;SDS011;63468;52.058;4.824;2023-08-12T12:38:51;16.60;;;15.35;;
74908;SDS011;63468;52.058;4.824;2023-08-12T12:41:16;16.27;;;14.75;;
74908;SDS011;63468;52.058;4.824;2023-08-12T12:43:42;16.05;;;14.70;;
74908;SDS011;63468;52.058;4.824;2023-08-12T12:46:07;15.73;;;14.20;;
74908;SDS011;63468;52.058;4.824;2023-08-12T12:48:32;15.95;;;14.57;;
74908;SDS011;63468;52.058;4.824;2023-08-12T12:50:58;16.00;;;14.45;;
74908;SDS011;63468;52.058;4.824;2023-08-12T12:53:23;16.35;;;14.68;;
74908;SDS011;63468;52.058;4.824;2023-08-12T12:55:48;16.30;;;14.88;;
74908;SDS011;63468;52.058;4.824;2023-08-12T12:58:14;15.57;;;14.27;;
74908;SDS011;63468;52.058;4.824;2023-08-12T13:00:39;16.08;;;14.48;;
74908;SDS011;63468;52.058;4.824;2023-08-12T13:03:04;15.77;;;14.15;;
74908;SDS011;63468;52.058;4.824;2023-08-12T13:05:31;15.93;;;14.43;;
74908;SDS011;63468;52.058;4.824;2023-08-12T13:07:56;15.25;;;13.65;;
74908;SDS011;63468;52.058;4.824;2023-08-12T13:10:22;15.52;;;14.23;;
74908;SDS011;63468;52.058;4.824;2023-08-12T13:12:47;15.40;;;14.00;;
74908;SDS011;63468;52.058;4.824;2023-08-12T13:15:12;15.32;;;13.95;;
74908;SDS011;63468;52.058;4.824;2023-08-12T13:17:38;14.80;;;13.23;;
74908;SDS011;63468;52.058;4.824;2023-08-12T13:20:03;15.07;;;13.50;;
74908;SDS011;63468;52.058;4.824;2023-08-12T13:22:30;14.45;;;12.98;;
74908;SDS011;63468;52.058;4.824;2023-08-12T13:24:55;15.18;;;13.57;;
74908;SDS011;63468;52.058;4.824;2023-08-12T13:27:21;14.93;;;13.52;;
74908;SDS011;63468;52.058;4.824;2023-08-12T13:29:46;15.77;;;12.63;;
74908;SDS011;63468;52.058;4.824;2023-08-12T13:32:11;15.00;;;13.13;;
74908;SDS011;63468;52.058;4.824;2023-08-12T13:34:37;14.70;;;12.20;;
74908;SDS011;63468;52.058;4.824;2023-08-12T13:37:02;16.08;;;12.93;;
74908;SDS011;63468;52.058;4.824;2023-08-12T13:39:27;13.55;;;11.77;;
74908;SDS011;63468;52.058;4.824;2023-08-12T13:41:53;12.88;;;11.32;;
74908;SDS011;63468;52.058;4.824;2023-08-12T13:44:19;15.70;;;12.18;;
74908;SDS011;63468;52.058;4.824;2023-08-12T13:46:45;12.70;;;11.35;;
74908;SDS011;63468;52.058;4.824;2023-08-12T13:49:10;14.45;;;11.30;;
74908;SDS011;63468;52.058;4.824;2023-08-12T13:51:36;12.80;;;11.43;;
74908;SDS011;63468;52.058;4.824;2023-08-12T13:54:02;14.02;;;11.82;;
74908;SDS011;63468;52.058;4.824;2023-08-12T13:56:27;16.17;;;10.75;;
74908;SDS011;63468;52.058;4.824;2023-08-12T13:58:52;12.07;;;10.82;;
74908;SDS011;63468;52.058;4.824;2023-08-12T14:01:18;15.57;;;11.55;;
74908;SDS011;63468;52.058;4.824;2023-08-12T14:03:43;19.45;;;11.38;;
74908;SDS011;63468;52.058;4.824;2023-08-12T14:06:09;12.68;;;10.43;;
74908;SDS011;63468;52.058;4.824;2023-08-12T14:08:34;11.80;;;10.70;;
74908;SDS011;63468;52.058;4.824;2023-08-12T14:10:59;13.70;;;10.95;;
74908;SDS011;63468;52.058;4.824;2023-08-12T14:13:25;12.65;;;11.10;;
74908;SDS011;63468;52.058;4.824;2023-08-12T14:15:50;16.13;;;10.63;;
74908;SDS011;63468;52.058;4.824;2023-08-12T14:18:15;13.95;;;11.13;;
74908;SDS011;63468;52.058;4.824;2023-08-12T14:20:41;12.43;;;9.98;;
74908;SDS011;63468;52.058;4.824;2023-08-12T14:23:06;11.75;;;10.57;;
74908;SDS011;63468;52.058;4.824;2023-08-12T14:25:33;11.63;;;9.50;;
74908;SDS011;63468;52.058;4.824;2023-08-12T14:27:58;12.13;;;10.23;;
74908;SDS011;63468;52.058;4.824;2023-08-12T14:30:24;14.73;;;10.45;;